Main page
METAR-TAF:

METAR-TAF

Airports :

Aransas County Airport

Rockport, Texas, United States

latitude: 28-05-01N, longitude: 097-02-47W, elevation: 23 ft

Current weather observation

The report was made 1 hour and 10 minutes ago, at 21:53 UTC
Wind 16 mph from the South/Southeast
Temperature 75°F
Humidity 74%
Pressure 29.80 in. Hg
Visibility: 5 miles
Clear sky
haze

METAR: KRKP 172153Z AUTO 15014KT 5SM HZ CLR 24/19 A2980 RMK AO2 SLP093 T02440194

Time: 17:03 (23:03 UTC)


TAF: missing

Weather observations and forecasts of more than 4000 airports (METAR and TAF reports).

The available stations are represented by yellow and red dots on the map.

Hover mouse over dot to see the name of the station.

Then click to see weather observations and forecasts.

To change the map : click on the green buttons with a black cross to zoom in, on the green button with a dash to zoom out, or on the green arrows for adjacent maps.


METAR-TAF: